Terminal Aerodrome Forecast
Issued by NWS

Home | Current Version | Previous Version | Text Only | Print | Product List | Glossary On
Versions: 1 2 3 4 5 6 7 8 9 10 11 12
000
FTUS43 KGRR 160540
TAFBTL
TAF
KBTL 160540Z 1606/1706 16003KT P6SM BKN150
     FM161700 12006KT 2SM -RA BR OVC015
     FM162100 12006KT 2SM RA BR OVC007
     FM162300 11007KT 1/2SM RA FG OVC003=

USA.gov is the U.S. government's official web portal to all federal, state and local government web resources and services.